sensor_id;sensor_type;location;lat;lon;timestamp;P1;durP1;ratioP1;P2;durP2;ratioP2
35074;SDS011;21260;34.984;32.490;2023-02-11T00:01:20;24.80;;;10.93;;
35074;SDS011;21260;34.984;32.490;2023-02-11T00:03:51;28.27;;;11.27;;
35074;SDS011;21260;34.984;32.490;2023-02-11T00:06:18;13.87;;;6.33;;
35074;SDS011;21260;34.984;32.490;2023-02-11T00:08:45;9.97;;;5.73;;
35074;SDS011;21260;34.984;32.490;2023-02-11T00:11:15;7.37;;;5.17;;
35074;SDS011;21260;34.984;32.490;2023-02-11T00:13:45;8.63;;;5.50;;
35074;SDS011;21260;34.984;32.490;2023-02-11T00:16:13;11.13;;;5.73;;
35074;SDS011;21260;34.984;32.490;2023-02-11T00:18:43;9.10;;;5.83;;
35074;SDS011;21260;34.984;32.490;2023-02-11T00:21:11;7.47;;;4.77;;
35074;SDS011;21260;34.984;32.490;2023-02-11T00:23:40;10.73;;;6.07;;
35074;SDS011;21260;34.984;32.490;2023-02-11T00:26:26;14.83;;;6.97;;
35074;SDS011;21260;34.984;32.490;2023-02-11T00:28:58;13.90;;;7.00;;
35074;SDS011;21260;34.984;32.490;2023-02-11T00:31:25;11.97;;;6.63;;
35074;SDS011;21260;34.984;32.490;2023-02-11T00:33:52;10.40;;;6.40;;
35074;SDS011;21260;34.984;32.490;2023-02-11T00:36:23;15.70;;;7.90;;
35074;SDS011;21260;34.984;32.490;2023-02-11T00:38:52;11.13;;;6.63;;
35074;SDS011;21260;34.984;32.490;2023-02-11T00:41:20;12.07;;;7.00;;
35074;SDS011;21260;34.984;32.490;2023-02-11T00:43:47;16.50;;;7.70;;
35074;SDS011;21260;34.984;32.490;2023-02-11T00:46:14;14.20;;;8.10;;
35074;SDS011;21260;34.984;32.490;2023-02-11T00:48:41;11.50;;;6.63;;
35074;SDS011;21260;34.984;32.490;2023-02-11T00:51:10;11.27;;;6.67;;
35074;SDS011;21260;34.984;32.490;2023-02-11T00:53:38;12.30;;;7.67;;
35074;SDS011;21260;34.984;32.490;2023-02-11T00:56:04;13.27;;;7.10;;
35074;SDS011;21260;34.984;32.490;2023-02-11T00:58:31;9.23;;;6.37;;
35074;SDS011;21260;34.984;32.490;2023-02-11T01:00:58;11.10;;;7.00;;
35074;SDS011;21260;34.984;32.490;2023-02-11T01:03:24;11.97;;;7.27;;
35074;SDS011;21260;34.984;32.490;2023-02-11T01:05:50;11.40;;;7.03;;
35074;SDS011;21260;34.984;32.490;2023-02-11T01:08:17;10.67;;;6.80;;
35074;SDS011;21260;34.984;32.490;2023-02-11T01:10:55;13.80;;;6.93;;
35074;SDS011;21260;34.984;32.490;2023-02-11T01:13:25;42.00;;;17.57;;
35074;SDS011;21260;34.984;32.490;2023-02-11T01:15:54;55.07;;;23.47;;
35074;SDS011;21260;34.984;32.490;2023-02-11T01:18:20;39.53;;;18.07;;
35074;SDS011;21260;34.984;32.490;2023-02-11T01:20:47;29.33;;;13.67;;
35074;SDS011;21260;34.984;32.490;2023-02-11T01:23:14;22.80;;;10.97;;
35074;SDS011;21260;34.984;32.490;2023-02-11T01:25:41;13.90;;;7.67;;
35074;SDS011;21260;34.984;32.490;2023-02-11T01:28:11;10.93;;;5.93;;
35074;SDS011;21260;34.984;32.490;2023-02-11T01:30:42;18.27;;;8.90;;
35074;SDS011;21260;34.984;32.490;2023-02-11T01:33:09;22.67;;;9.83;;
35074;SDS011;21260;34.984;32.490;2023-02-11T01:35:36;16.50;;;8.23;;
35074;SDS011;21260;34.984;32.490;2023-02-11T01:38:04;20.93;;;9.50;;
35074;SDS011;21260;34.984;32.490;2023-02-11T01:40:45;15.20;;;6.90;;
35074;SDS011;21260;34.984;32.490;2023-02-11T01:43:17;15.60;;;8.30;;
35074;SDS011;21260;34.984;32.490;2023-02-11T01:48:18;22.90;;;9.20;;
35074;SDS011;21260;34.984;32.490;2023-02-11T01:50:55;51.03;;;19.53;;
35074;SDS011;21260;34.984;32.490;2023-02-11T01:53:28;22.03;;;9.87;;
35074;SDS011;21260;34.984;32.490;2023-02-11T01:56:16;25.77;;;11.87;;
35074;SDS011;21260;34.984;32.490;2023-02-11T01:59:05;20.20;;;8.60;;
35074;SDS011;21260;34.984;32.490;2023-02-11T02:01:39;29.33;;;11.80;;
35074;SDS011;21260;34.984;32.490;2023-02-11T02:04:14;22.27;;;9.97;;
35074;SDS011;21260;34.984;32.490;2023-02-11T02:06:49;25.87;;;9.77;;
35074;SDS011;21260;34.984;32.490;2023-02-11T02:09:28;23.57;;;11.00;;
35074;SDS011;21260;34.984;32.490;2023-02-11T02:12:06;14.90;;;8.47;;
35074;SDS011;21260;34.984;32.490;2023-02-11T02:14:36;25.73;;;12.57;;
35074;SDS011;21260;34.984;32.490;2023-02-11T02:17:04;51.30;;;20.80;;
35074;SDS011;21260;34.984;32.490;2023-02-11T02:40:59;29.77;;;12.07;;
35074;SDS011;21260;34.984;32.490;2023-02-11T02:43:41;19.67;;;9.90;;
35074;SDS011;21260;34.984;32.490;2023-02-11T02:48:44;46.93;;;19.37;;
35074;SDS011;21260;34.984;32.490;2023-02-11T03:00:17;34.67;;;15.63;;
35074;SDS011;21260;34.984;32.490;2023-02-11T03:12:04;55.77;;;22.33;;
35074;SDS011;21260;34.984;32.490;2023-02-11T03:14:32;37.47;;;15.77;;
35074;SDS011;21260;34.984;32.490;2023-02-11T03:17:02;21.53;;;10.00;;
35074;SDS011;21260;34.984;32.490;2023-02-11T03:19:40;26.47;;;12.90;;
35074;SDS011;21260;34.984;32.490;2023-02-11T03:22:11;11.43;;;6.83;;
35074;SDS011;21260;34.984;32.490;2023-02-11T03:24:49;16.30;;;7.30;;
35074;SDS011;21260;34.984;32.490;2023-02-11T03:30:35;19.13;;;9.87;;
35074;SDS011;21260;34.984;32.490;2023-02-11T03:36:55;30.60;;;14.47;;
35074;SDS011;21260;34.984;32.490;2023-02-11T03:40:00;58.13;;;26.83;;
35074;SDS011;21260;34.984;32.490;2023-02-11T03:42:34;35.03;;;14.30;;
35074;SDS011;21260;34.984;32.490;2023-02-11T03:45:16;32.07;;;12.83;;
35074;SDS011;21260;34.984;32.490;2023-02-11T03:47:47;21.87;;;11.50;;
35074;SDS011;21260;34.984;32.490;2023-02-11T03:50:44;37.73;;;17.70;;
35074;SDS011;21260;34.984;32.490;2023-02-11T03:53:14;57.97;;;24.77;;
35074;SDS011;21260;34.984;32.490;2023-02-11T03:55:41;42.93;;;21.93;;
35074;SDS011;21260;34.984;32.490;2023-02-11T03:58:11;45.77;;;21.17;;
35074;SDS011;21260;34.984;32.490;2023-02-11T04:00:38;33.27;;;18.93;;
35074;SDS011;21260;34.984;32.490;2023-02-11T04:03:07;28.57;;;16.00;;
35074;SDS011;21260;34.984;32.490;2023-02-11T04:05:34;18.70;;;11.70;;
35074;SDS011;21260;34.984;32.490;2023-02-11T04:08:02;23.80;;;12.70;;
35074;SDS011;21260;34.984;32.490;2023-02-11T04:10:30;75.43;;;33.53;;
35074;SDS011;21260;34.984;32.490;2023-02-11T04:12:56;126.50;;;58.53;;
35074;SDS011;21260;34.984;32.490;2023-02-11T04:15:22;120.17;;;51.57;;
35074;SDS011;21260;34.984;32.490;2023-02-11T04:17:49;32.33;;;14.83;;
35074;SDS011;21260;34.984;32.490;2023-02-11T04:20:16;21.10;;;11.50;;
35074;SDS011;21260;34.984;32.490;2023-02-11T04:22:42;34.53;;;17.07;;
35074;SDS011;21260;34.984;32.490;2023-02-11T04:25:09;38.17;;;19.10;;
35074;SDS011;21260;34.984;32.490;2023-02-11T04:27:35;30.27;;;14.70;;
35074;SDS011;21260;34.984;32.490;2023-02-11T04:30:02;33.80;;;16.90;;
35074;SDS011;21260;34.984;32.490;2023-02-11T04:32:30;31.70;;;17.27;;
35074;SDS011;21260;34.984;32.490;2023-02-11T04:34:56;35.37;;;19.77;;
35074;SDS011;21260;34.984;32.490;2023-02-11T04:37:26;33.60;;;17.00;;
35074;SDS011;21260;34.984;32.490;2023-02-11T04:39:52;29.53;;;16.47;;
35074;SDS011;21260;34.984;32.490;2023-02-11T04:42:18;36.47;;;18.97;;
35074;SDS011;21260;34.984;32.490;2023-02-11T04:44:44;25.83;;;15.93;;
35074;SDS011;21260;34.984;32.490;2023-02-11T04:47:10;29.47;;;14.97;;
35074;SDS011;21260;34.984;32.490;2023-02-11T04:49:39;43.13;;;21.33;;
35074;SDS011;21260;34.984;32.490;2023-02-11T04:52:06;28.40;;;15.27;;
35074;SDS011;21260;34.984;32.490;2023-02-11T04:54:33;52.70;;;26.87;;
35074;SDS011;21260;34.984;32.490;2023-02-11T04:56:59;57.57;;;29.60;;
35074;SDS011;21260;34.984;32.490;2023-02-11T04:59:25;43.30;;;22.00;;
35074;SDS011;21260;34.984;32.490;2023-02-11T05:01:52;26.07;;;15.60;;
35074;SDS011;21260;34.984;32.490;2023-02-11T05:04:18;30.13;;;15.70;;
35074;SDS011;21260;34.984;32.490;2023-02-11T05:06:44;37.17;;;15.60;;
35074;SDS011;21260;34.984;32.490;2023-02-11T05:09:11;25.17;;;14.27;;
35074;SDS011;21260;34.984;32.490;2023-02-11T05:11:38;25.10;;;14.60;;
35074;SDS011;21260;34.984;32.490;2023-02-11T05:14:04;17.97;;;8.90;;
35074;SDS011;21260;34.984;32.490;2023-02-11T05:16:31;14.70;;;7.70;;
35074;SDS011;21260;34.984;32.490;2023-02-11T05:18:58;15.53;;;10.47;;
35074;SDS011;21260;34.984;32.490;2023-02-11T05:21:25;45.23;;;23.07;;
35074;SDS011;21260;34.984;32.490;2023-02-11T05:23:51;58.30;;;27.07;;
35074;SDS011;21260;34.984;32.490;2023-02-11T05:26:17;64.23;;;30.83;;
35074;SDS011;21260;34.984;32.490;2023-02-11T05:28:44;60.53;;;31.50;;
35074;SDS011;21260;34.984;32.490;2023-02-11T05:31:10;29.93;;;16.03;;
35074;SDS011;21260;34.984;32.490;2023-02-11T05:33:38;35.40;;;17.23;;
35074;SDS011;21260;34.984;32.490;2023-02-11T05:36:11;48.70;;;23.23;;
35074;SDS011;21260;34.984;32.490;2023-02-11T05:38:38;40.03;;;17.10;;
35074;SDS011;21260;34.984;32.490;2023-02-11T05:41:07;49.90;;;22.47;;
35074;SDS011;21260;34.984;32.490;2023-02-11T05:43:35;34.97;;;17.03;;
35074;SDS011;21260;34.984;32.490;2023-02-11T05:46:02;31.53;;;15.90;;
35074;SDS011;21260;34.984;32.490;2023-02-11T05:48:29;13.60;;;8.67;;
35074;SDS011;21260;34.984;32.490;2023-02-11T05:50:56;11.93;;;7.60;;
35074;SDS011;21260;34.984;32.490;2023-02-11T05:53:23;14.53;;;7.97;;
35074;SDS011;21260;34.984;32.490;2023-02-11T05:55:49;14.40;;;7.23;;
35074;SDS011;21260;34.984;32.490;2023-02-11T05:58:16;11.03;;;6.87;;
35074;SDS011;21260;34.984;32.490;2023-02-11T06:00:43;9.93;;;6.47;;
35074;SDS011;21260;34.984;32.490;2023-02-11T06:03:11;10.80;;;7.17;;
35074;SDS011;21260;34.984;32.490;2023-02-11T06:05:37;12.33;;;7.10;;
35074;SDS011;21260;34.984;32.490;2023-02-11T06:08:03;11.83;;;6.87;;
35074;SDS011;21260;34.984;32.490;2023-02-11T06:10:29;10.43;;;6.93;;
35074;SDS011;21260;34.984;32.490;2023-02-11T06:12:56;15.43;;;7.67;;
35074;SDS011;21260;34.984;32.490;2023-02-11T06:15:22;10.77;;;7.50;;
35074;SDS011;21260;34.984;32.490;2023-02-11T06:17:48;13.90;;;6.47;;
35074;SDS011;21260;34.984;32.490;2023-02-11T06:20:15;13.43;;;7.80;;
35074;SDS011;21260;34.984;32.490;2023-02-11T06:22:41;13.30;;;7.90;;
35074;SDS011;21260;34.984;32.490;2023-02-11T06:25:07;12.67;;;6.97;;
35074;SDS011;21260;34.984;32.490;2023-02-11T06:27:35;15.77;;;7.93;;
35074;SDS011;21260;34.984;32.490;2023-02-11T06:30:02;10.43;;;6.90;;
35074;SDS011;21260;34.984;32.490;2023-02-11T06:32:33;12.33;;;7.70;;
35074;SDS011;21260;34.984;32.490;2023-02-11T06:35:05;9.77;;;6.60;;
35074;SDS011;21260;34.984;32.490;2023-02-11T06:37:32;13.43;;;6.60;;
35074;SDS011;21260;34.984;32.490;2023-02-11T06:40:03;9.43;;;6.87;;
35074;SDS011;21260;34.984;32.490;2023-02-11T06:42:33;8.40;;;5.60;;
35074;SDS011;21260;34.984;32.490;2023-02-11T06:45:00;8.33;;;5.67;;
35074;SDS011;21260;34.984;32.490;2023-02-11T06:47:26;12.13;;;6.07;;
35074;SDS011;21260;34.984;32.490;2023-02-11T06:49:53;12.30;;;5.80;;
35074;SDS011;21260;34.984;32.490;2023-02-11T06:52:19;9.47;;;6.43;;
35074;SDS011;21260;34.984;32.490;2023-02-11T06:54:45;10.90;;;5.40;;
35074;SDS011;21260;34.984;32.490;2023-02-11T06:57:12;10.63;;;6.00;;
35074;SDS011;21260;34.984;32.490;2023-02-11T06:59:38;9.87;;;6.53;;
35074;SDS011;21260;34.984;32.490;2023-02-11T07:02:05;11.27;;;5.43;;
35074;SDS011;21260;34.984;32.490;2023-02-11T07:04:33;13.27;;;5.73;;
35074;SDS011;21260;34.984;32.490;2023-02-11T07:07:00;11.13;;;5.30;;
35074;SDS011;21260;34.984;32.490;2023-02-11T07:09:26;8.27;;;5.40;;
35074;SDS011;21260;34.984;32.490;2023-02-11T07:11:52;8.80;;;4.87;;
35074;SDS011;21260;34.984;32.490;2023-02-11T07:14:18;8.37;;;5.40;;
35074;SDS011;21260;34.984;32.490;2023-02-11T07:16:47;7.97;;;5.63;;
35074;SDS011;21260;34.984;32.490;2023-02-11T07:19:13;14.30;;;5.33;;
35074;SDS011;21260;34.984;32.490;2023-02-11T07:21:40;7.93;;;4.80;;
35074;SDS011;21260;34.984;32.490;2023-02-11T07:24:07;9.63;;;5.27;;
35074;SDS011;21260;34.984;32.490;2023-02-11T07:26:34;10.27;;;5.00;;
35074;SDS011;21260;34.984;32.490;2023-02-11T07:29:01;7.77;;;5.67;;
35074;SDS011;21260;34.984;32.490;2023-02-11T07:31:28;8.87;;;5.30;;
35074;SDS011;21260;34.984;32.490;2023-02-11T07:33:58;8.87;;;5.30;;
35074;SDS011;21260;34.984;32.490;2023-02-11T07:36:27;7.20;;;5.13;;
35074;SDS011;21260;34.984;32.490;2023-02-11T07:38:55;6.50;;;5.37;;
35074;SDS011;21260;34.984;32.490;2023-02-11T07:41:23;7.30;;;4.80;;
35074;SDS011;21260;34.984;32.490;2023-02-11T07:43:52;8.60;;;5.33;;
35074;SDS011;21260;34.984;32.490;2023-02-11T07:46:20;9.50;;;5.03;;
35074;SDS011;21260;34.984;32.490;2023-02-11T07:48:49;9.50;;;5.07;;
35074;SDS011;21260;34.984;32.490;2023-02-11T07:51:17;10.50;;;5.27;;
35074;SDS011;21260;34.984;32.490;2023-02-11T07:53:46;13.37;;;6.23;;
35074;SDS011;21260;34.984;32.490;2023-02-11T07:56:14;7.97;;;5.83;;
35074;SDS011;21260;34.984;32.490;2023-02-11T07:58:41;9.63;;;5.60;;
35074;SDS011;21260;34.984;32.490;2023-02-11T08:01:09;7.80;;;5.17;;
35074;SDS011;21260;34.984;32.490;2023-02-11T08:03:42;9.37;;;5.40;;
35074;SDS011;21260;34.984;32.490;2023-02-11T08:06:10;6.70;;;5.07;;
35074;SDS011;21260;34.984;32.490;2023-02-11T08:08:39;9.33;;;5.03;;
35074;SDS011;21260;34.984;32.490;2023-02-11T08:11:07;7.97;;;4.87;;
35074;SDS011;21260;34.984;32.490;2023-02-11T08:13:40;5.30;;;4.37;;
35074;SDS011;21260;34.984;32.490;2023-02-11T08:16:08;11.07;;;4.73;;
35074;SDS011;21260;34.984;32.490;2023-02-11T08:18:41;5.20;;;4.43;;
35074;SDS011;21260;34.984;32.490;2023-02-11T08:21:07;6.90;;;4.83;;
35074;SDS011;21260;34.984;32.490;2023-02-11T08:23:35;10.93;;;4.90;;
35074;SDS011;21260;34.984;32.490;2023-02-11T08:26:05;5.73;;;4.67;;
35074;SDS011;21260;34.984;32.490;2023-02-11T08:28:35;8.80;;;4.40;;
35074;SDS011;21260;34.984;32.490;2023-02-11T08:31:04;6.37;;;3.97;;
35074;SDS011;21260;34.984;32.490;2023-02-11T08:33:40;7.10;;;4.13;;
35074;SDS011;21260;34.984;32.490;2023-02-11T08:36:07;11.10;;;4.73;;
35074;SDS011;21260;34.984;32.490;2023-02-11T08:38:48;9.80;;;4.73;;
35074;SDS011;21260;34.984;32.490;2023-02-11T08:41:14;9.80;;;4.30;;
35074;SDS011;21260;34.984;32.490;2023-02-11T08:43:43;5.93;;;4.17;;
35074;SDS011;21260;34.984;32.490;2023-02-11T08:46:14;8.77;;;4.70;;
35074;SDS011;21260;34.984;32.490;2023-02-11T08:48:44;10.27;;;4.90;;
35074;SDS011;21260;34.984;32.490;2023-02-11T08:51:18;7.83;;;4.20;;
35074;SDS011;21260;34.984;32.490;2023-02-11T08:53:55;9.43;;;4.07;;
35074;SDS011;21260;34.984;32.490;2023-02-11T08:56:23;7.80;;;4.33;;
35074;SDS011;21260;34.984;32.490;2023-02-11T08:58:51;8.40;;;5.07;;
35074;SDS011;21260;34.984;32.490;2023-02-11T09:01:23;13.00;;;5.30;;
35074;SDS011;21260;34.984;32.490;2023-02-11T09:03:52;7.70;;;4.53;;
35074;SDS011;21260;34.984;32.490;2023-02-11T09:06:19;7.20;;;4.80;;
35074;SDS011;21260;34.984;32.490;2023-02-11T09:08:48;7.87;;;4.50;;
35074;SDS011;21260;34.984;32.490;2023-02-11T09:11:18;8.57;;;4.80;;
35074;SDS011;21260;34.984;32.490;2023-02-11T09:13:50;6.20;;;4.43;;
35074;SDS011;21260;34.984;32.490;2023-02-11T09:16:18;12.57;;;4.70;;
35074;SDS011;21260;34.984;32.490;2023-02-11T09:18:47;7.73;;;4.63;;
35074;SDS011;21260;34.984;32.490;2023-02-11T09:21:14;10.67;;;5.83;;
35074;SDS011;21260;34.984;32.490;2023-02-11T09:23:43;8.63;;;4.87;;
35074;SDS011;21260;34.984;32.490;2023-02-11T09:26:20;8.63;;;4.43;;
35074;SDS011;21260;34.984;32.490;2023-02-11T09:28:50;7.00;;;4.50;;
35074;SDS011;21260;34.984;32.490;2023-02-11T09:31:18;9.97;;;4.37;;
35074;SDS011;21260;34.984;32.490;2023-02-11T09:33:47;10.40;;;5.17;;
35074;SDS011;21260;34.984;32.490;2023-02-11T09:36:20;7.27;;;4.73;;
35074;SDS011;21260;34.984;32.490;2023-02-11T09:38:58;11.37;;;4.50;;
35074;SDS011;21260;34.984;32.490;2023-02-11T09:44:59;8.60;;;4.80;;
35074;SDS011;21260;34.984;32.490;2023-02-11T09:47:29;8.07;;;4.70;;
35074;SDS011;21260;34.984;32.490;2023-02-11T09:52:51;6.97;;;4.30;;
35074;SDS011;21260;34.984;32.490;2023-02-11T10:06:54;8.20;;;4.80;;
35074;SDS011;21260;34.984;32.490;2023-02-11T10:15:09;8.90;;;4.27;;
35074;SDS011;21260;34.984;32.490;2023-02-11T10:23:20;10.27;;;5.00;;
35074;SDS011;21260;34.984;32.490;2023-02-11T10:25:51;8.10;;;4.67;;
35074;SDS011;21260;34.984;32.490;2023-02-11T10:28:29;8.53;;;4.40;;
35074;SDS011;21260;34.984;32.490;2023-02-11T10:36:29;5.77;;;4.73;;
35074;SDS011;21260;34.984;32.490;2023-02-11T10:39:04;9.23;;;4.60;;
35074;SDS011;21260;34.984;32.490;2023-02-11T10:41:44;10.80;;;4.67;;
35074;SDS011;21260;34.984;32.490;2023-02-11T10:44:30;11.87;;;4.90;;
35074;SDS011;21260;34.984;32.490;2023-02-11T10:47:21;9.20;;;4.50;;
35074;SDS011;21260;34.984;32.490;2023-02-11T10:49:52;8.90;;;5.03;;
35074;SDS011;21260;34.984;32.490;2023-02-11T10:52:20;8.20;;;4.60;;
35074;SDS011;21260;34.984;32.490;2023-02-11T10:57:42;9.67;;;4.60;;
35074;SDS011;21260;34.984;32.490;2023-02-11T11:00:33;7.63;;;4.50;;
35074;SDS011;21260;34.984;32.490;2023-02-11T11:03:13;6.30;;;4.33;;
35074;SDS011;21260;34.984;32.490;2023-02-11T11:05:48;11.47;;;4.40;;
35074;SDS011;21260;34.984;32.490;2023-02-11T11:08:39;8.07;;;4.53;;
35074;SDS011;21260;34.984;32.490;2023-02-11T11:11:18;5.97;;;4.17;;
35074;SDS011;21260;34.984;32.490;2023-02-11T11:18:51;5.03;;;3.73;;
35074;SDS011;21260;34.984;32.490;2023-02-11T11:21:46;8.47;;;3.90;;
35074;SDS011;21260;34.984;32.490;2023-02-11T11:24:21;5.40;;;4.10;;
35074;SDS011;21260;34.984;32.490;2023-02-11T11:26:59;7.77;;;4.20;;
35074;SDS011;21260;34.984;32.490;2023-02-11T11:29:39;12.67;;;4.00;;
35074;SDS011;21260;34.984;32.490;2023-02-11T11:32:15;9.03;;;4.10;;
35074;SDS011;21260;34.984;32.490;2023-02-11T11:34:51;6.13;;;4.50;;
35074;SDS011;21260;34.984;32.490;2023-02-11T11:37:30;7.53;;;4.30;;
35074;SDS011;21260;34.984;32.490;2023-02-11T11:40:20;7.47;;;4.00;;
35074;SDS011;21260;34.984;32.490;2023-02-11T11:45:55;6.27;;;4.13;;
35074;SDS011;21260;34.984;32.490;2023-02-11T11:51:07;11.03;;;4.33;;
35074;SDS011;21260;34.984;32.490;2023-02-11T11:53:40;6.80;;;4.33;;
35074;SDS011;21260;34.984;32.490;2023-02-11T11:56:19;7.80;;;4.20;;
35074;SDS011;21260;34.984;32.490;2023-02-11T11:58:51;6.73;;;4.37;;
35074;SDS011;21260;34.984;32.490;2023-02-11T12:01:25;9.37;;;3.90;;
35074;SDS011;21260;34.984;32.490;2023-02-11T12:04:39;7.90;;;4.07;;
35074;SDS011;21260;34.984;32.490;2023-02-11T12:24:55;5.63;;;3.90;;
35074;SDS011;21260;34.984;32.490;2023-02-11T12:30:49;13.73;;;4.20;;
35074;SDS011;21260;34.984;32.490;2023-02-11T12:33:46;5.70;;;4.00;;
35074;SDS011;21260;34.984;32.490;2023-02-11T12:37:16;6.57;;;4.07;;
35074;SDS011;21260;34.984;32.490;2023-02-11T12:40:17;9.53;;;4.13;;
35074;SDS011;21260;34.984;32.490;2023-02-11T12:43:19;6.73;;;3.93;;
35074;SDS011;21260;34.984;32.490;2023-02-11T12:54:57;6.67;;;4.20;;
35074;SDS011;21260;34.984;32.490;2023-02-11T12:57:35;6.37;;;3.80;;
35074;SDS011;21260;34.984;32.490;2023-02-11T13:00:13;5.43;;;3.50;;
35074;SDS011;21260;34.984;32.490;2023-02-11T13:05:22;4.77;;;3.90;;
35074;SDS011;21260;34.984;32.490;2023-02-11T13:08:18;7.23;;;3.80;;
35074;SDS011;21260;34.984;32.490;2023-02-11T13:10:57;6.07;;;3.87;;
35074;SDS011;21260;34.984;32.490;2023-02-11T13:13:38;5.57;;;3.93;;
35074;SDS011;21260;34.984;32.490;2023-02-11T13:30:34;5.67;;;3.67;;
35074;SDS011;21260;34.984;32.490;2023-02-11T13:33:18;6.30;;;3.70;;
35074;SDS011;21260;34.984;32.490;2023-02-11T13:38:24;5.73;;;3.90;;
35074;SDS011;21260;34.984;32.490;2023-02-11T13:41:36;6.77;;;3.50;;
35074;SDS011;21260;34.984;32.490;2023-02-11T13:47:11;5.47;;;3.57;;
35074;SDS011;21260;34.984;32.490;2023-02-11T13:52:28;5.77;;;3.80;;
35074;SDS011;21260;34.984;32.490;2023-02-11T13:55:20;6.73;;;4.30;;
35074;SDS011;21260;34.984;32.490;2023-02-11T14:00:43;6.47;;;3.63;;
35074;SDS011;21260;34.984;32.490;2023-02-11T14:03:21;12.87;;;4.07;;
35074;SDS011;21260;34.984;32.490;2023-02-11T14:06:26;7.30;;;4.20;;
35074;SDS011;21260;34.984;32.490;2023-02-11T14:14:25;10.03;;;3.67;;
35074;SDS011;21260;34.984;32.490;2023-02-11T14:19:35;7.30;;;4.30;;
35074;SDS011;21260;34.984;32.490;2023-02-11T14:22:03;8.53;;;4.20;;
35074;SDS011;21260;34.984;32.490;2023-02-11T14:24:56;8.17;;;4.17;;
35074;SDS011;21260;34.984;32.490;2023-02-11T14:32:51;6.80;;;4.07;;
35074;SDS011;21260;34.984;32.490;2023-02-11T14:35:56;7.53;;;4.93;;
35074;SDS011;21260;34.984;32.490;2023-02-11T14:38:50;6.53;;;4.17;;
35074;SDS011;21260;34.984;32.490;2023-02-11T14:41:40;5.87;;;4.00;;
35074;SDS011;21260;34.984;32.490;2023-02-11T14:44:16;9.47;;;4.37;;
35074;SDS011;21260;34.984;32.490;2023-02-11T14:46:51;6.60;;;4.43;;
35074;SDS011;21260;34.984;32.490;2023-02-11T14:49:25;7.33;;;4.63;;
35074;SDS011;21260;34.984;32.490;2023-02-11T14:55:28;7.53;;;4.50;;
35074;SDS011;21260;34.984;32.490;2023-02-11T14:58:14;6.83;;;4.10;;
35074;SDS011;21260;34.984;32.490;2023-02-11T15:03:59;6.97;;;4.13;;
35074;SDS011;21260;34.984;32.490;2023-02-11T15:06:32;8.17;;;4.33;;
35074;SDS011;21260;34.984;32.490;2023-02-11T15:09:12;8.90;;;5.00;;
35074;SDS011;21260;34.984;32.490;2023-02-11T15:11:39;7.67;;;4.40;;
35074;SDS011;21260;34.984;32.490;2023-02-11T15:14:09;5.73;;;4.17;;
35074;SDS011;21260;34.984;32.490;2023-02-11T15:16:59;7.47;;;4.27;;
35074;SDS011;21260;34.984;32.490;2023-02-11T15:19:31;7.03;;;4.47;;
35074;SDS011;21260;34.984;32.490;2023-02-11T15:22:18;5.10;;;4.30;;
35074;SDS011;21260;34.984;32.490;2023-02-11T15:25:00;6.67;;;4.60;;
35074;SDS011;21260;34.984;32.490;2023-02-11T15:27:44;5.10;;;3.97;;
35074;SDS011;21260;34.984;32.490;2023-02-11T15:32:51;6.63;;;4.53;;
35074;SDS011;21260;34.984;32.490;2023-02-11T15:35:23;6.27;;;4.63;;
35074;SDS011;21260;34.984;32.490;2023-02-11T15:37:54;9.17;;;4.70;;
35074;SDS011;21260;34.984;32.490;2023-02-11T15:40:24;7.60;;;4.73;;
35074;SDS011;21260;34.984;32.490;2023-02-11T15:42:55;7.20;;;4.60;;
35074;SDS011;21260;34.984;32.490;2023-02-11T15:45:28;13.57;;;4.40;;
35074;SDS011;21260;34.984;32.490;2023-02-11T15:48:24;10.03;;;4.87;;
35074;SDS011;21260;34.984;32.490;2023-02-11T15:51:02;8.03;;;4.30;;
35074;SDS011;21260;34.984;32.490;2023-02-11T15:53:47;11.07;;;4.50;;
35074;SDS011;21260;34.984;32.490;2023-02-11T15:56:30;10.57;;;5.00;;
35074;SDS011;21260;34.984;32.490;2023-02-11T16:01:44;9.73;;;5.00;;
35074;SDS011;21260;34.984;32.490;2023-02-11T16:04:19;7.73;;;5.10;;
35074;SDS011;21260;34.984;32.490;2023-02-11T16:06:49;7.33;;;4.50;;
35074;SDS011;21260;34.984;32.490;2023-02-11T16:09:30;10.47;;;5.10;;
35074;SDS011;21260;34.984;32.490;2023-02-11T16:12:00;11.83;;;4.97;;
35074;SDS011;21260;34.984;32.490;2023-02-11T16:14:47;10.00;;;4.67;;
35074;SDS011;21260;34.984;32.490;2023-02-11T16:17:23;11.80;;;4.97;;
35074;SDS011;21260;34.984;32.490;2023-02-11T16:19:53;10.97;;;4.93;;
35074;SDS011;21260;34.984;32.490;2023-02-11T16:22:24;7.57;;;5.03;;
35074;SDS011;21260;34.984;32.490;2023-02-11T16:24:55;8.03;;;4.97;;
35074;SDS011;21260;34.984;32.490;2023-02-11T16:27:39;10.30;;;5.00;;
35074;SDS011;21260;34.984;32.490;2023-02-11T16:30:20;6.53;;;5.13;;
35074;SDS011;21260;34.984;32.490;2023-02-11T16:33:05;9.23;;;5.80;;
35074;SDS011;21260;34.984;32.490;2023-02-11T16:35:35;8.20;;;5.63;;
35074;SDS011;21260;34.984;32.490;2023-02-11T16:38:02;11.87;;;5.67;;
35074;SDS011;21260;34.984;32.490;2023-02-11T16:40:28;7.63;;;5.10;;
35074;SDS011;21260;34.984;32.490;2023-02-11T16:42:55;10.00;;;5.37;;
35074;SDS011;21260;34.984;32.490;2023-02-11T16:45:21;9.00;;;5.57;;
35074;SDS011;21260;34.984;32.490;2023-02-11T16:47:47;9.97;;;5.00;;
35074;SDS011;21260;34.984;32.490;2023-02-11T16:50:21;8.40;;;4.67;;
35074;SDS011;21260;34.984;32.490;2023-02-11T16:52:50;10.33;;;5.20;;
35074;SDS011;21260;34.984;32.490;2023-02-11T16:55:17;9.40;;;5.63;;
35074;SDS011;21260;34.984;32.490;2023-02-11T16:57:43;6.57;;;4.87;;
35074;SDS011;21260;34.984;32.490;2023-02-11T17:00:10;7.57;;;5.10;;
35074;SDS011;21260;34.984;32.490;2023-02-11T17:02:40;8.83;;;4.70;;
35074;SDS011;21260;34.984;32.490;2023-02-11T17:05:10;8.63;;;5.17;;
35074;SDS011;21260;34.984;32.490;2023-02-11T17:07:47;7.23;;;5.03;;
35074;SDS011;21260;34.984;32.490;2023-02-11T17:10:17;6.87;;;5.20;;
35074;SDS011;21260;34.984;32.490;2023-02-11T17:12:50;8.50;;;5.00;;
35074;SDS011;21260;34.984;32.490;2023-02-11T17:15:17;9.20;;;4.77;;
35074;SDS011;21260;34.984;32.490;2023-02-11T17:17:43;6.63;;;4.57;;
35074;SDS011;21260;34.984;32.490;2023-02-11T17:20:11;8.37;;;4.50;;
35074;SDS011;21260;34.984;32.490;2023-02-11T17:22:39;12.23;;;5.47;;
35074;SDS011;21260;34.984;32.490;2023-02-11T17:25:06;7.93;;;5.67;;
35074;SDS011;21260;34.984;32.490;2023-02-11T17:27:39;8.67;;;5.30;;
35074;SDS011;21260;34.984;32.490;2023-02-11T17:30:06;11.57;;;6.03;;
35074;SDS011;21260;34.984;32.490;2023-02-11T17:32:33;9.90;;;5.90;;
35074;SDS011;21260;34.984;32.490;2023-02-11T17:35:03;6.87;;;4.97;;
35074;SDS011;21260;34.984;32.490;2023-02-11T17:37:31;8.07;;;5.47;;
35074;SDS011;21260;34.984;32.490;2023-02-11T17:39:57;11.37;;;5.30;;
35074;SDS011;21260;34.984;32.490;2023-02-11T17:42:24;8.30;;;5.33;;
35074;SDS011;21260;34.984;32.490;2023-02-11T17:44:50;9.87;;;4.87;;
35074;SDS011;21260;34.984;32.490;2023-02-11T17:47:17;8.97;;;5.40;;
35074;SDS011;21260;34.984;32.490;2023-02-11T17:49:43;11.87;;;5.80;;
35074;SDS011;21260;34.984;32.490;2023-02-11T17:52:09;7.37;;;5.23;;
35074;SDS011;21260;34.984;32.490;2023-02-11T17:54:36;11.20;;;4.87;;
35074;SDS011;21260;34.984;32.490;2023-02-11T17:57:03;9.07;;;5.60;;
35074;SDS011;21260;34.984;32.490;2023-02-11T17:59:29;11.13;;;5.80;;